createdAt,value
2022-11-20T08:01:28.492Z,1007.90
2022-11-20T08:02:28.433Z,1007.88
2022-11-20T08:03:28.371Z,1007.89
2022-11-20T08:04:28.319Z,1007.90
2022-11-20T08:05:28.563Z,1007.89
2022-11-20T08:06:28.207Z,1007.92
2022-11-20T08:07:28.221Z,1007.94
2022-11-20T08:08:28.098Z,1007.91
2022-11-20T08:09:28.045Z,1007.93
2022-11-20T08:10:27.990Z,1007.94
2022-11-20T08:11:27.944Z,1007.97
2022-11-20T08:12:27.886Z,1007.90
2022-11-20T08:13:27.836Z,1007.85
2022-11-20T08:14:27.791Z,1007.89
2022-11-20T08:15:27.729Z,1007.86
2022-11-20T08:16:27.677Z,1007.88
2022-11-20T08:17:27.624Z,1007.85
2022-11-20T08:18:32.417Z,1007.85
2022-11-20T08:19:27.524Z,1007.88
2022-11-20T08:20:27.474Z,1007.90
2022-11-20T08:21:27.420Z,1007.94
2022-11-20T08:22:27.374Z,1007.92
2022-11-20T08:23:27.321Z,1007.94
2022-11-20T08:24:27.275Z,1007.95
2022-11-20T08:25:27.219Z,1007.96
2022-11-20T08:26:27.176Z,1007.95
2022-11-20T08:27:27.116Z,1007.96
2022-11-20T08:28:27.071Z,1007.99
2022-11-20T08:29:27.019Z,1008.02
2022-11-20T08:30:26.973Z,1008.02
2022-11-20T08:31:26.917Z,1008.06
2022-11-20T08:32:26.869Z,1008.02
2022-11-20T08:33:26.813Z,1008.04
2022-11-20T08:34:26.765Z,1008.08
2022-11-20T08:35:26.713Z,1008.09
2022-11-20T08:36:26.666Z,1008.06
2022-11-20T08:37:26.615Z,1008.10
2022-11-20T08:38:26.568Z,1008.05
2022-11-20T08:39:26.513Z,1008.03
2022-11-20T08:40:26.465Z,1008.05
2022-11-20T08:41:26.416Z,1008.02
2022-11-20T08:42:26.365Z,1008.03
2022-11-20T08:43:26.314Z,1008.02
2022-11-20T08:44:26.267Z,1008.05
2022-11-20T08:45:30.939Z,1008.06
2022-11-20T08:46:26.169Z,1008.10
2022-11-20T08:47:26.117Z,1008.10
2022-11-20T08:48:26.069Z,1008.12
2022-11-20T08:49:26.016Z,1008.11
2022-11-20T08:50:25.968Z,1008.16
2022-11-20T08:51:25.917Z,1008.19
2022-11-20T08:52:25.870Z,1008.19
2022-11-20T08:53:25.819Z,1008.20
2022-11-20T12:13:32.209Z,1005.94
2022-11-20T12:14:32.154Z,1005.88
2022-11-20T12:15:32.113Z,1005.91
2022-11-20T12:16:32.049Z,1005.94
2022-11-20T12:17:31.993Z,1005.88
2022-11-20T12:18:31.945Z,1005.85
2022-11-20T12:19:31.893Z,1005.89
2022-11-20T12:20:31.841Z,1005.90
2022-11-20T12:21:31.790Z,1005.90
2022-11-20T12:22:31.742Z,1005.86
2022-11-20T12:23:31.688Z,1005.88
2022-11-20T12:24:31.641Z,1005.89
2022-11-20T12:25:31.593Z,1005.85
2022-11-20T12:26:31.542Z,1005.87
2022-11-20T12:27:31.492Z,1005.89
2022-11-20T12:28:31.498Z,1005.82
2022-11-20T12:29:31.397Z,1005.87
2022-11-20T12:30:31.365Z,1005.85
2022-11-20T12:31:31.299Z,1005.87
2022-11-20T12:32:31.252Z,1005.82
2022-11-20T12:33:31.201Z,1005.82
2022-11-20T12:34:31.156Z,1005.81
2022-11-20T12:35:31.104Z,1005.80
2022-11-20T12:36:31.093Z,1005.79
2022-11-20T12:37:31.012Z,1005.78
2022-11-20T12:38:30.985Z,1005.81
2022-11-20T12:39:30.914Z,1005.80
2022-11-20T12:40:30.916Z,1005.81
2022-11-20T12:41:30.818Z,1005.79
2022-11-20T12:42:30.773Z,1005.79
2022-11-20T12:43:30.725Z,1005.78
2022-11-20T12:44:30.718Z,1005.76
2022-11-20T12:45:30.630Z,1005.75
2022-11-20T12:46:30.613Z,1005.71
2022-11-20T12:47:30.532Z,1005.70
2022-11-20T12:48:30.488Z,1005.74
2022-11-20T12:49:30.452Z,1005.72
2022-11-20T12:50:30.614Z,1005.65
2022-11-20T12:51:30.343Z,1005.63
2022-11-20T12:52:30.301Z,1005.61
2022-11-20T12:53:30.349Z,1005.58
2022-11-20T12:54:30.244Z,1005.57
2022-11-20T12:55:30.154Z,1005.55
2022-11-20T12:56:30.118Z,1005.51
2022-11-20T12:57:30.133Z,1005.50
2022-11-20T12:58:30.013Z,1005.50
2022-11-20T12:59:29.971Z,1005.50
2022-11-20T13:00:29.921Z,1005.46
2022-11-20T13:01:29.932Z,1005.47
2022-11-20T13:02:29.829Z,1005.46
2022-11-20T13:03:29.778Z,1005.44
2022-11-20T13:04:29.734Z,1005.40
2022-11-20T13:05:29.733Z,1005.34
2022-11-20T13:06:29.637Z,1005.31
2022-11-20T13:07:29.627Z,1005.32
2022-11-20T13:08:29.584Z,1005.27
2022-11-20T13:09:29.495Z,1005.23
2022-11-20T13:10:29.450Z,1005.21
2022-11-20T13:11:29.400Z,1005.20
2022-11-20T13:12:29.356Z,1005.21
2022-11-20T13:13:29.307Z,1005.22
2022-11-20T13:14:29.263Z,1005.22
2022-11-20T13:15:29.213Z,1005.19
2022-11-20T13:16:29.169Z,1005.18
2022-11-20T13:17:29.123Z,1005.14
2022-11-20T13:18:29.076Z,1005.15
2022-11-20T13:19:29.026Z,1005.16
2022-11-20T13:20:28.986Z,1005.13
2022-11-20T13:21:28.936Z,1005.16
2022-11-20T13:22:28.885Z,1005.08
2022-11-20T13:23:28.845Z,1005.06
2022-11-20T13:24:28.849Z,1005.00
2022-11-20T13:25:28.742Z,1004.99
2022-11-20T13:26:28.699Z,1005.06
2022-11-20T13:27:28.650Z,1005.06
2022-11-20T13:28:28.604Z,1005.05
2022-11-20T13:29:28.557Z,1005.08
2022-11-20T13:30:28.511Z,1005.03
2022-11-20T13:31:28.467Z,1005.01
2022-11-20T13:32:28.421Z,1004.98
2022-11-20T13:33:28.374Z,1004.99
2022-11-20T13:34:28.323Z,1004.99
2022-11-20T13:35:28.278Z,1004.88
2022-11-20T13:36:28.232Z,1004.86
2022-11-20T13:37:28.188Z,1004.85
2022-11-20T13:38:32.743Z,1004.87
2022-11-20T13:39:28.088Z,1004.84
2022-11-20T13:40:28.043Z,1004.87
2022-11-20T13:41:27.996Z,1004.80
2022-11-20T13:42:27.951Z,1004.83
2022-11-20T13:43:27.899Z,1004.76
2022-11-20T13:44:27.854Z,1004.72
2022-11-20T13:45:27.811Z,1004.73
2022-11-20T13:46:27.760Z,1004.68
2022-11-20T13:47:27.718Z,1004.69
2022-11-20T13:48:27.669Z,1004.66
2022-11-20T13:49:27.621Z,1004.65
2022-11-20T13:50:27.574Z,1004.66
2022-11-20T13:51:27.528Z,1004.66
2022-11-20T13:52:27.480Z,1004.65
2022-11-20T13:53:27.432Z,1004.59
2022-11-20T13:54:27.387Z,1004.65
2022-11-20T13:55:27.342Z,1004.61
2022-11-20T13:56:27.293Z,1004.56
2022-11-20T13:57:27.249Z,1004.43
2022-11-20T13:58:27.203Z,1004.47
2022-11-20T13:59:27.149Z,1004.38
2022-11-20T14:00:27.165Z,1004.33
2022-11-20T14:01:27.247Z,1004.37
2022-11-20T14:02:27.011Z,1004.35
2022-11-20T14:03:59.102Z,1004.32
2022-11-20T14:04:26.916Z,1004.34
2022-11-20T14:05:26.872Z,1004.32
2022-11-20T14:07:10.304Z,1004.35
2022-11-20T14:08:10.154Z,1004.36
2022-11-20T14:09:10.107Z,1004.30
2022-11-20T14:10:10.060Z,1004.29
2022-11-20T14:11:10.012Z,1004.32
2022-11-20T14:12:09.968Z,1004.35
2022-11-20T14:13:09.919Z,1004.31
2022-11-20T14:14:10.277Z,1004.30
2022-11-20T14:15:09.825Z,1004.32
2022-11-20T14:16:09.778Z,1004.25
2022-11-20T14:17:09.732Z,1004.23
2022-11-20T14:18:09.685Z,1004.24
2022-11-20T14:19:09.639Z,1004.21
2022-11-20T14:20:09.591Z,1004.20
2022-11-20T14:21:09.563Z,1004.18
2022-11-20T14:22:09.555Z,1004.14
2022-11-20T14:23:09.463Z,1004.19
2022-11-20T14:24:09.423Z,1004.12
2022-11-20T14:25:09.354Z,1004.06
2022-11-20T14:26:09.308Z,1004.02
2022-11-20T14:27:09.260Z,1004.01
2022-11-20T14:28:09.212Z,1003.99
2022-11-20T14:29:09.166Z,1003.95
2022-11-20T14:30:09.120Z,1003.87
2022-11-20T14:31:09.072Z,1003.84
2022-11-20T14:32:09.026Z,1003.83
2022-11-20T14:33:08.981Z,1003.82
2022-11-20T14:34:08.931Z,1003.76
2022-11-20T14:35:08.886Z,1003.75
2022-11-20T14:36:08.839Z,1003.73
2022-11-20T14:37:11.441Z,1003.74
2022-11-20T14:38:08.742Z,1003.69
2022-11-20T14:39:08.695Z,1003.69
2022-11-20T14:40:08.648Z,1003.70
2022-11-20T14:41:08.636Z,1003.68
2022-11-20T14:42:08.556Z,1003.72
2022-11-20T14:43:08.515Z,1003.69
2022-11-20T14:44:08.471Z,1003.71
2022-11-20T14:45:08.411Z,1003.64
2022-11-20T14:46:08.406Z,1003.64
2022-11-20T14:47:08.321Z,1003.62
2022-11-20T14:48:08.274Z,1003.54
2022-11-20T14:49:08.222Z,1003.55
2022-11-20T14:50:10.110Z,1003.57
2022-11-20T14:51:08.132Z,1003.51
2022-11-20T14:52:08.082Z,1003.49
2022-11-20T14:53:08.033Z,1003.47
2022-11-20T14:54:07.991Z,1003.46
2022-11-20T14:55:07.940Z,1003.46
2022-11-20T14:56:07.893Z,1003.46
2022-11-20T14:57:07.846Z,1003.46
2022-11-20T14:58:08.123Z,1003.41
2022-11-20T14:59:07.750Z,1003.38
2022-11-20T15:00:07.725Z,1003.32
2022-11-20T15:01:07.656Z,1003.28
2022-11-20T15:02:07.611Z,1003.30
2022-11-20T15:03:07.562Z,1003.31
2022-11-20T15:04:07.588Z,1003.28
2022-11-20T15:05:07.489Z,1003.31
2022-11-20T15:06:07.422Z,1003.31
2022-11-20T15:07:07.400Z,1003.27
2022-11-20T15:08:07.330Z,1003.22
2022-11-20T15:09:07.290Z,1003.24
2022-11-20T15:10:07.234Z,1003.20
2022-11-20T15:11:07.185Z,1003.22
2022-11-20T15:12:07.139Z,1003.20
2022-11-20T15:13:11.425Z,1003.18
2022-11-20T15:14:07.053Z,1003.14
2022-11-20T15:15:06.995Z,1003.09
2022-11-20T15:16:06.952Z,1003.10
2022-11-20T15:17:06.900Z,1003.08
2022-11-20T15:18:06.856Z,1003.03
2022-11-20T15:19:06.808Z,1002.97
2022-11-20T15:20:06.760Z,1002.97
2022-11-20T15:22:06.668Z,1002.95
2022-11-20T15:23:06.619Z,1002.95
2022-11-20T15:24:06.578Z,1002.88
2022-11-20T15:25:06.586Z,1002.89
2022-11-20T15:26:06.475Z,1002.88
2022-11-20T15:27:06.434Z,1002.90
2022-11-20T15:28:06.379Z,1002.86
2022-11-20T15:29:06.338Z,1002.85
2022-11-20T15:30:06.289Z,1002.81
2022-11-20T15:31:06.241Z,1002.76
2022-11-20T15:32:11.944Z,1002.75
2022-11-20T15:33:06.144Z,1002.80
2022-11-20T15:34:06.097Z,1002.79
2022-11-20T15:35:06.052Z,1002.77
2022-11-20T15:36:06.000Z,1002.70
2022-11-20T15:37:05.959Z,1002.73
2022-11-20T15:38:05.915Z,1002.73
2022-11-20T15:39:05.866Z,1002.70
2022-11-20T15:40:05.813Z,1002.65
2022-11-20T15:42:05.719Z,1002.65
2022-11-20T15:43:11.373Z,1002.63
2022-11-20T15:44:05.623Z,1002.64
2022-11-20T15:45:05.577Z,1002.60
2022-11-20T15:46:05.529Z,1002.57
2022-11-20T15:47:05.482Z,1002.54
2022-11-20T15:48:05.437Z,1002.54
2022-11-20T15:49:05.385Z,1002.49
2022-11-20T15:50:05.340Z,1002.51
2022-11-20T15:51:05.293Z,1002.51
2022-11-20T15:52:05.249Z,1002.42
2022-11-20T15:53:05.195Z,1002.45
2022-11-20T15:54:05.148Z,1002.44
2022-11-20T15:55:09.492Z,1002.40
2022-11-20T15:56:05.053Z,1002.46
2022-11-20T15:57:05.008Z,1002.45
2022-11-20T15:58:04.959Z,1002.41
2022-11-20T15:59:04.914Z,1002.45
2022-11-20T16:00:04.887Z,1002.44
2022-11-20T16:01:04.858Z,1002.44
2022-11-20T16:02:04.776Z,1002.43
2022-11-20T16:03:04.725Z,1002.43
2022-11-20T16:04:04.677Z,1002.45
2022-11-20T16:05:04.674Z,1002.47
2022-11-20T16:06:04.579Z,1002.41
2022-11-20T16:07:04.606Z,1002.43
2022-11-20T16:08:09.967Z,1002.42
2022-11-20T16:09:04.436Z,1002.47
2022-11-20T16:10:04.390Z,1002.39
2022-11-20T16:11:04.340Z,1002.48
2022-11-20T16:12:04.296Z,1002.41
2022-11-20T16:13:04.250Z,1002.40
2022-11-20T16:14:04.201Z,1002.41
2022-11-20T16:15:05.587Z,1002.37
2022-11-20T16:16:04.103Z,1002.41
2022-11-20T16:17:04.058Z,1002.37
2022-11-20T16:18:04.007Z,1002.30
2022-11-20T16:19:03.958Z,1002.35
2022-11-20T16:20:03.911Z,1002.32
2022-11-20T16:21:03.863Z,1002.29
2022-11-20T16:22:03.819Z,1002.28
2022-11-20T16:23:03.772Z,1002.28
2022-11-20T16:24:03.729Z,1002.28
2022-11-20T16:25:03.676Z,1002.25
2022-11-20T16:26:03.640Z,1002.22
2022-11-20T16:27:03.580Z,1002.23
2022-11-20T16:28:03.534Z,1002.22
2022-11-20T16:29:03.483Z,1002.24
2022-11-20T16:30:03.438Z,1002.25
2022-11-20T16:31:03.387Z,1002.21
2022-11-20T16:32:03.343Z,1002.26
2022-11-20T16:33:03.383Z,1002.23
2022-11-20T16:34:07.156Z,1002.21
2022-11-20T16:35:03.294Z,1002.21
2022-11-20T16:36:03.156Z,1002.21
2022-11-20T16:37:03.104Z,1002.14
2022-11-20T16:38:03.071Z,1002.06
2022-11-20T16:39:03.045Z,1002.13
2022-11-20T16:40:02.959Z,1002.10
2022-11-20T16:41:02.913Z,1002.07
2022-11-20T16:42:02.869Z,1002.04
2022-11-20T16:43:02.847Z,1002.04
2022-11-20T16:44:02.909Z,1001.97
2022-11-20T16:45:02.722Z,1001.95
2022-11-20T16:46:02.677Z,1001.92
2022-11-20T16:47:02.625Z,1001.85
2022-11-20T16:48:02.585Z,1001.87
2022-11-20T16:49:02.537Z,1001.87
2022-11-20T16:50:02.482Z,1001.84
2022-11-20T16:51:02.434Z,1001.78
2022-11-20T16:52:02.391Z,1001.80
2022-11-20T16:53:02.339Z,1001.74
2022-11-20T16:54:02.299Z,1001.70
2022-11-20T16:55:02.247Z,1001.65
2022-11-20T16:56:02.197Z,1001.64
2022-11-20T16:57:02.158Z,1001.61
2022-11-20T16:58:02.103Z,1001.60
2022-11-20T16:59:02.064Z,1001.58
2022-11-20T17:00:02.668Z,1001.52
2022-11-20T17:01:01.992Z,1001.49
2022-11-20T17:02:01.919Z,1001.48
2022-11-20T17:03:01.869Z,1001.44
2022-11-20T17:04:01.814Z,1001.41
2022-11-20T17:05:01.769Z,1001.38
2022-11-20T17:06:01.724Z,1001.44
2022-11-20T17:07:07.641Z,1001.42
2022-11-20T17:08:01.627Z,1001.41
2022-11-20T17:09:01.573Z,1001.38
2022-11-20T17:10:01.538Z,1001.36
2022-11-20T17:11:01.482Z,1001.37
2022-11-20T17:12:01.435Z,1001.37
2022-11-20T17:13:01.585Z,1001.33
2022-11-20T17:14:01.341Z,1001.25
2022-11-20T17:15:01.300Z,1001.24
2022-11-20T17:16:01.241Z,1001.25
2022-11-20T17:17:01.193Z,1001.23
2022-11-20T17:18:01.147Z,1001.23
2022-11-20T17:19:03.228Z,1001.20
2022-11-20T17:20:01.051Z,1001.19
2022-11-20T17:21:01.003Z,1001.14
2022-11-20T17:22:00.956Z,1001.11
2022-11-20T17:23:00.918Z,1001.04
2022-11-20T17:24:00.861Z,1001.03
2022-11-20T17:25:00.816Z,1001.02
2022-11-20T17:26:00.765Z,1000.95
2022-11-20T17:28:00.677Z,1000.91
2022-11-20T17:29:00.628Z,1000.87
2022-11-20T17:30:00.642Z,1000.82
2022-11-20T17:31:00.527Z,1000.79
2022-11-20T17:32:00.476Z,1000.77
2022-11-20T17:33:00.433Z,1000.74
2022-11-20T17:34:00.459Z,1000.67
2022-11-20T17:35:00.335Z,1000.65
2022-11-20T17:36:00.292Z,1000.63
2022-11-20T17:37:00.241Z,1000.62
2022-11-20T17:38:00.191Z,1000.61
2022-11-20T17:39:00.147Z,1000.55
2022-11-20T17:40:00.139Z,1000.55
2022-11-20T17:42:00.001Z,1000.50
2022-11-20T17:42:59.956Z,1000.50
2022-11-20T17:43:59.906Z,1000.43
2022-11-20T17:44:59.857Z,1000.43
2022-11-20T17:45:59.811Z,1000.39
2022-11-20T17:46:59.766Z,1000.39
2022-11-20T17:47:59.722Z,1000.40
2022-11-20T17:48:59.678Z,1000.38
2022-11-20T17:49:59.621Z,1000.38
2022-11-20T17:50:59.577Z,1000.31
2022-11-20T17:51:59.537Z,1000.30
2022-11-20T17:52:59.476Z,1000.29
2022-11-20T17:53:59.468Z,1000.26
2022-11-20T17:55:59.333Z,1000.19
2022-11-20T17:56:59.289Z,1000.15
2022-11-20T17:57:59.242Z,1000.10
2022-11-20T17:58:59.193Z,1000.08
2022-11-20T17:59:59.145Z,1000.09
2022-11-20T18:00:59.097Z,1000.04
2022-11-20T18:02:03.449Z,1000.00
2022-11-20T18:02:59.001Z,999.96
2022-11-20T18:03:58.952Z,999.95
2022-11-20T18:04:58.907Z,999.94
2022-11-20T18:05:58.857Z,999.90
2022-11-20T18:06:58.867Z,999.89
2022-11-20T18:07:58.763Z,999.85
2022-11-20T18:08:58.717Z,999.84
2022-11-20T18:09:58.668Z,999.86
2022-11-20T18:10:58.625Z,999.85
2022-11-20T18:11:58.579Z,999.84
2022-11-20T18:12:58.529Z,999.79
2022-11-20T18:13:58.477Z,999.77
2022-11-20T18:14:58.432Z,999.73
2022-11-20T18:15:58.384Z,999.72
2022-11-20T18:16:58.337Z,999.71
2022-11-20T18:17:58.316Z,999.67
2022-11-20T18:18:58.266Z,999.67
2022-11-20T18:20:27.242Z,999.64
2022-11-20T18:20:58.158Z,999.57
2022-11-20T18:21:58.099Z,999.59
2022-11-20T18:22:58.056Z,999.65
2022-11-20T18:23:58.008Z,999.59
2022-11-20T18:24:57.957Z,999.59
2022-11-20T18:25:57.912Z,999.58
2022-11-20T18:26:57.862Z,999.55
2022-11-20T18:27:57.815Z,999.49
2022-11-20T18:29:57.720Z,999.47
2022-11-20T18:30:57.680Z,999.49
2022-11-20T18:31:57.633Z,999.55
2022-11-20T18:32:57.578Z,999.48
2022-11-20T18:33:57.526Z,999.46
2022-11-20T18:34:57.486Z,999.47
2022-11-20T18:35:57.439Z,999.41
2022-11-20T18:36:57.390Z,999.44
2022-11-20T18:37:57.365Z,999.44
2022-11-20T18:38:57.332Z,999.38
2022-11-20T18:39:57.308Z,999.41
2022-11-20T18:41:01.987Z,999.35
2022-11-20T18:41:57.154Z,999.31
2022-11-20T18:42:57.106Z,999.30
2022-11-20T18:43:57.151Z,999.26
2022-11-20T18:44:57.016Z,999.29
2022-11-20T18:46:56.912Z,999.16
2022-11-20T18:47:56.869Z,999.16
2022-11-20T18:48:56.824Z,999.11
2022-11-20T18:49:56.773Z,999.12
2022-11-20T18:50:56.739Z,999.17
2022-11-20T18:51:56.677Z,999.05
2022-11-20T18:52:56.631Z,999.07
2022-11-20T18:53:56.587Z,999.04
2022-11-20T18:54:56.534Z,999.02
2022-11-20T18:55:56.488Z,999.02
2022-11-20T18:56:56.439Z,998.98
2022-11-20T18:57:56.395Z,998.96
2022-11-20T18:59:00.267Z,998.95
2022-11-20T18:59:56.303Z,998.91
2022-11-20T19:00:56.255Z,998.86
2022-11-20T19:01:56.269Z,998.85
2022-11-20T19:02:56.156Z,998.82
2022-11-20T19:03:56.120Z,998.79
2022-11-20T19:04:56.061Z,998.78
2022-11-20T19:05:56.019Z,998.70
2022-11-20T19:06:55.974Z,998.76
2022-11-20T19:07:55.921Z,998.69
2022-11-20T19:08:55.873Z,998.63
2022-11-20T19:09:59.638Z,998.65
2022-11-20T19:10:55.779Z,998.64
2022-11-20T19:11:55.742Z,998.62
2022-11-20T19:12:55.685Z,998.54
2022-11-20T19:13:55.640Z,998.55
2022-11-20T19:14:55.589Z,998.54
2022-11-20T19:15:55.548Z,998.50
2022-11-20T19:16:55.495Z,998.43
2022-11-20T19:17:55.450Z,998.45
2022-11-20T19:18:57.251Z,998.37
2022-11-20T19:19:55.405Z,998.40
2022-11-20T19:20:55.305Z,998.36
2022-11-20T19:21:55.261Z,998.30
2022-11-20T19:22:55.216Z,998.31
2022-11-20T19:23:55.171Z,998.30
2022-11-20T19:25:55.077Z,998.24
2022-11-20T19:26:55.037Z,998.30
2022-11-20T19:27:54.984Z,998.24
2022-11-20T19:28:54.935Z,998.21
2022-11-20T19:29:54.885Z,998.23
2022-11-20T19:30:54.838Z,998.18
2022-11-20T19:31:54.789Z,998.18
2022-11-20T19:32:54.746Z,998.19
2022-11-20T19:33:54.700Z,998.19
2022-11-20T19:34:54.648Z,998.16
2022-11-20T19:35:54.600Z,998.13
2022-11-20T19:36:54.556Z,998.14
2022-11-20T19:37:54.509Z,998.14
2022-11-20T19:38:54.461Z,998.14
2022-11-20T19:39:54.417Z,998.11
2022-11-20T19:40:54.368Z,998.08
2022-11-20T19:41:54.318Z,998.12
2022-11-20T19:42:54.276Z,998.09
2022-11-20T19:43:54.226Z,998.10
2022-11-20T19:44:54.181Z,998.10
2022-11-20T19:45:54.130Z,998.07
2022-11-20T19:46:54.092Z,998.04
2022-11-20T19:48:07.829Z,998.03
2022-11-20T19:48:53.993Z,998.06
2022-11-20T19:49:53.943Z,998.00
2022-11-20T19:50:53.905Z,998.03
2022-11-20T19:51:53.853Z,998.05
2022-11-20T19:52:58.526Z,998.05
2022-11-20T19:53:53.762Z,998.04
2022-11-20T19:54:53.711Z,998.04
2022-11-20T19:55:53.663Z,998.08
2022-11-20T19:56:53.617Z,998.06
2022-11-20T19:57:53.567Z,998.06
2022-11-20T19:58:53.523Z,998.12
2022-11-20T19:59:53.474Z,998.12
2022-11-20T20:00:53.429Z,998.16
2022-11-20T20:01:53.444Z,998.17
2022-11-20T20:02:53.343Z,998.12
2022-11-20T20:03:53.290Z,998.14
2022-11-20T20:04:53.245Z,998.22
2022-11-20T20:05:53.195Z,998.15
2022-11-20T20:06:53.153Z,998.19
2022-11-20T20:07:53.103Z,998.13
2022-11-20T20:08:53.056Z,998.17
2022-11-20T20:09:53.016Z,998.18
2022-11-20T20:10:56.738Z,998.19
2022-11-20T20:11:52.913Z,998.15
2022-11-20T20:12:52.874Z,998.20
2022-11-20T20:13:52.820Z,998.22
2022-11-20T20:14:52.781Z,998.23
2022-11-20T20:15:52.729Z,998.21
2022-11-20T20:16:52.685Z,998.25
2022-11-20T20:17:52.633Z,998.28
2022-11-20T20:18:52.591Z,998.25
2022-11-20T20:19:52.540Z,998.31
2022-11-20T20:20:52.494Z,998.26
2022-11-20T20:21:52.448Z,998.28
2022-11-20T20:22:52.403Z,998.28
2022-11-20T20:23:52.353Z,998.29
2022-11-20T20:24:52.312Z,998.35
2022-11-20T20:25:52.260Z,998.33
2022-11-20T20:26:55.557Z,998.34
2022-11-20T20:27:52.174Z,998.32
2022-11-20T20:28:52.122Z,998.43
2022-11-20T20:29:52.076Z,998.46
2022-11-20T20:30:52.030Z,998.49
2022-11-20T20:31:51.982Z,998.56
2022-11-20T20:32:56.093Z,998.53
2022-11-20T20:33:51.889Z,998.51
2022-11-20T20:34:51.841Z,998.56
2022-11-20T20:35:51.801Z,998.55
2022-11-20T20:36:51.749Z,998.54
2022-11-20T20:37:51.702Z,998.61
2022-11-20T20:38:51.658Z,998.58
2022-11-20T20:39:51.606Z,998.63
2022-11-20T20:40:51.562Z,998.68
2022-11-20T20:41:51.514Z,998.67
2022-11-20T20:42:51.470Z,998.72
2022-11-20T20:43:51.421Z,998.75
2022-11-20T20:44:51.376Z,998.74
2022-11-20T20:45:51.326Z,998.71
2022-11-20T20:46:51.282Z,998.72
2022-11-20T20:47:51.239Z,998.83
2022-11-20T20:48:54.388Z,998.86
2022-11-20T20:49:51.137Z,998.84
2022-11-20T20:50:51.094Z,998.89
2022-11-20T20:51:51.045Z,998.94
2022-11-20T20:52:51.001Z,998.85
2022-11-20T20:53:50.953Z,998.89
2022-11-20T20:54:50.908Z,998.87
2022-11-20T20:55:50.861Z,998.89
2022-11-20T20:56:50.815Z,998.91
2022-11-20T20:57:50.765Z,998.95
2022-11-20T20:58:50.723Z,998.97
2022-11-20T20:59:50.671Z,999.02
2022-11-20T21:00:50.627Z,999.03
2022-11-20T21:01:50.620Z,998.98
2022-11-20T21:02:50.535Z,999.07
2022-11-20T21:03:50.496Z,999.01
2022-11-20T21:04:50.445Z,999.13
2022-11-20T21:05:50.394Z,999.12
2022-11-20T21:06:50.345Z,999.16
2022-11-20T21:07:50.299Z,999.09
2022-11-20T21:08:50.252Z,999.14
2022-11-20T21:09:50.209Z,999.17
2022-11-20T21:10:50.159Z,999.17
2022-11-20T21:11:50.115Z,999.12
2022-11-20T21:12:50.065Z,999.18
2022-11-20T21:13:50.016Z,999.27
2022-11-20T21:14:49.971Z,999.27
2022-11-20T21:15:49.923Z,999.34
2022-11-20T21:16:49.876Z,999.29
2022-11-20T21:17:49.832Z,999.32
2022-11-20T21:18:49.786Z,999.39
2022-11-20T21:19:49.738Z,999.39
2022-11-20T21:20:49.693Z,999.42
2022-11-20T21:21:49.645Z,999.37
2022-11-20T21:22:49.594Z,999.44
2022-11-20T21:23:49.545Z,999.41
2022-11-20T21:24:49.504Z,999.46
2022-11-20T21:25:49.458Z,999.48
